Terminal Aerodrome Forecast
Issued by NWS

Home | Current Version | Previous Version | Text Only | Print | Product List | Glossary On
Versions: 1 2 3 4 5 6 7 8 9 10 11 12 13 14 15 16 17 18 19 20 21 22 23 24 25 26 27 28 29 30 31 32 33 34 35 36 37 38 39 40 41
000
FTUS45 KSLC 251736
TAFENV
TAF
KENV 251736Z 2518/2618 08008KT P6SM VCSH SCT050 OVC100
     FM251800 14006KT P6SM -SHRA SCT040 OVC060
     FM252000 32012G25KT P6SM -SHRA SCT040 OVC060
     FM260400 34025G35KT P6SM SCT050 OVC120
     FM261200 34016G25KT P6SM SCT080 SCT120
      AMD LTD TO CLD VIS AND WIND=

USA.gov is the U.S. government's official web portal to all federal, state and local government web resources and services.